Archival Weather

Los Angeles Intl

Los Angeles, California (KLAX)

Report from: Thursday, September 21, 2023 4:53 PM PDT
Current time: Saturday, March 2, 2024 1:32 AM PST

Current weather – Weather history – Daily summaries
Weather forecast

Temperature20.0°C (68.0°F)
Dew point14.4°C (57.9°F)
Winds 12 kts (6.2 m/s, 13.8 mph) West-Southwest (240°)
Visibility10 mi. (16.1 km)
Clouds Few clouds 2,100 ft. (640 m)
Few clouds 4,500 ft. (1,372 m)
Altimeter29.92 in.Hg (1013 mB)
Relative humidity70 %
Density altitude821 ft. (250 m)
Sea-level pressure101.3 kPa (1013 mB, 29.91 in.Hg)
Max temp last 6 hours21.7°C (71.1°F)
Min temp last 6 hours20.0°C (68.0°F)
Remarks Automated weather observing station with precipitation discriminator
Pressure falling more slowly
Flight conditions Visual Meteorological Conditions
Raw dataKLAX 212353Z 24012KT 10SM FEW021 FEW045 20/14 A2992 RMK AO2 SLP130 T02000144 10217 20200 56008
An error has occurred. This application may no longer respond until reloaded. Reload 🗙